Weather reports worldwide

Advertisment
Exeter Airport No. 2, United Kingdom (3844): temperature & dewpoint: 23.04.2017 06:00:00 - 29.04.2017 06:00:00 (BST)Exeter Airport No. 2, United Kingdom (3844): wind speed & gusts: 23.04.2017 06:00:00 - 29.04.2017 06:00:00 (BST)Exeter Airport No. 2, United Kingdom (3844): wind direction: 23.04.2017 06:00:00 - 29.04.2017 06:00:00 (BST)Exeter Airport No. 2, United Kingdom (3844): reduced air pressure: 23.04.2017 06:00:00 - 29.04.2017 06:00:00 (BST)Exeter Airport No. 2, United Kingdom (3844): sunshine duration: 23.04.2017 06:00:00 - 29.04.2017 06:00:00 (BST)Exeter Airport No. 2, United Kingdom (3844): precipitation: 23.04.2017 06:00:00 - 29.04.2017 06:00:00 (BST)
Date & Time tt [°C] td [°C] ff [km/h] ff [kn] fx [km/h] fx [kn] dd ppp [hPa] sd [min] rr [mm]
29.04.2017 06:00:00 7,0 5,6 5 3 - - E 1014,9 0 0,0
29.04.2017 05:00:00 6,9 5,2 8 4 - - NNW 1015,4 0 0,0
29.04.2017 04:00:00 6,8 5,1 2 1 - - SE 1015,7 0 0,0
29.04.2017 03:00:00 6,9 4,5 0 0 - - N 1016,1 0 0,0
29.04.2017 02:00:00 6,8 4,7 4 2 - - ENE 1016,3 0 0,0
29.04.2017 01:00:00 7,1 4,4 4 2 - - SSE 1016,9 - 0,0
29.04.2017 00:00:00 7,8 5,1 2 1 - - SSW 1017,2 0 0,0
28.04.2017 23:00:00 8,3 4,3 0 0 - - N 1017,7 0 0,0
28.04.2017 22:00:00 9,3 4,0 4 2 - - NW 1017,8 0 0,0
28.04.2017 21:00:00 9,2 4,3 2 1 - - WNW 1017,7 0 0,0
28.04.2017 20:00:00 9,8 4,8 4 2 - - NW 1017,4 0 0,0
28.04.2017 19:00:00 10,2 4,3 9 5 - - NW 1017,2 0 0,0
28.04.2017 18:00:00 10,3 4,4 11 6 - - WNW 1017,5 0 0,0
28.04.2017 17:00:00 11,4 4,8 15 8 - - WNW 1017,7 0 0,0
28.04.2017 16:00:00 12,3 5,0 9 5 - - WNW 1017,7 0 0,0
28.04.2017 15:00:00 11,7 5,3 13 7 - - WNW 1017,9 0 0,0
28.04.2017 14:00:00 11,1 5,2 15 8 - - WNW 1018,1 0 0,0
28.04.2017 13:00:00 11,6 5,3 9 5 - - NNW 1018,1 0 0,0
28.04.2017 12:00:00 10,8 4,9 13 7 - - NW 1018,4 0 0,0
28.04.2017 11:00:00 10,8 6,5 13 7 - - NW 1018,4 0 0,0
28.04.2017 10:00:00 10,0 7,2 11 6 - - NW 1018,6 0 0,0
28.04.2017 09:00:00 9,4 6,5 13 7 - - WNW 1018,8 6 0,0
28.04.2017 08:00:00 8,8 6,5 5 3 - - WNW 1018,7 0 0,0
28.04.2017 07:00:00 8,3 6,2 5 3 - - WNW 1018,5 0 0,0
28.04.2017 06:00:00 7,9 6,0 5 3 - - WNW 1018,3 0 0,0
28.04.2017 05:00:00 7,8 5,7 2 1 - - NNW 1018,4 0 0,0
28.04.2017 04:00:00 8,4 5,6 9 5 - - NNW 1018,5 0 0,0
28.04.2017 03:00:00 8,2 5,6 5 3 - - NNW 1018,6 0 0,0
28.04.2017 02:00:00 8,2 6,2 5 3 - - NNW 1018,9 0 0,0
28.04.2017 01:00:00 7,9 6,4 9 5 - - WNW 1018,9 - 0,0
28.04.2017 00:00:00 7,8 6,1 9 5 - - WNW 1019,2 0 0,0
27.04.2017 23:00:00 7,9 5,6 13 7 - - WNW 1019,6 0 0,0
27.04.2017 22:00:00 8,1 5,3 9 5 - - WNW 1019,8 0 0,0
27.04.2017 21:00:00 8,6 5,5 15 8 - - WNW 1019,7 0 0,0
27.04.2017 20:00:00 8,9 5,0 16 9 - - WNW 1019,6 0 0,0
27.04.2017 19:00:00 9,8 4,3 16 9 - - WNW 1019,6 0 0,0
27.04.2017 18:00:00 10,0 3,9 16 9 - - NW 1019,7 0 0,0
27.04.2017 17:00:00 9,9 3,7 21 11 - - WNW 1020,0 0 0,0
27.04.2017 16:00:00 10,4 4,0 21 11 - - NW 1020,4 0 0,0
27.04.2017 15:00:00 10,1 2,7 18 10 - - NW 1020,7 0 0,0
27.04.2017 14:00:00 10,5 2,8 18 10 - - WNW 1020,6 6 0,0
27.04.2017 13:00:00 10,5 1,8 15 8 - - NW 1020,9 6 0,0
27.04.2017 12:00:00 10,4 -0,3 11 6 - - NNW 1021,3 36 0,0
27.04.2017 11:00:00 10,1 0,5 16 9 - - NNW 1021,8 60 0,0
27.04.2017 10:00:00 7,5 1,5 9 5 - - NW 1022,1 60 0,0
27.04.2017 09:00:00 4,8 1,8 5 3 - - NW 1022,4 60 0,2
27.04.2017 08:00:00 1,7 0,6 4 2 - - N 1022,3 60 0,0
27.04.2017 07:00:00 -1,1 -1,3 2 1 - - SE 1022,1 18 0,0
27.04.2017 06:00:00 -1,2 -1,3 2 1 - - ENE 1022,0 0 0,0
27.04.2017 05:00:00 -2,7 -3,1 4 2 - - ENE 1022,0 0 0,0
27.04.2017 04:00:00 -1,3 -1,7 4 2 - - N 1021,9 0 0,0
27.04.2017 03:00:00 -2,4 -2,9 2 1 - - E 1022,0 0 0,0
27.04.2017 02:00:00 -1,8 -2,8 0 0 - - N 1022,1 0 0,0
27.04.2017 01:00:00 -0,9 -1,5 4 2 - - E 1021,9 - 0,0
27.04.2017 00:00:00 -0,8 -1,8 4 2 - - E 1021,8 0 0,0
26.04.2017 23:00:00 0,7 -1,2 0 0 - - N 1021,7 0 0,0
26.04.2017 22:00:00 3,4 0,0 2 1 - - SE 1021,4 0 0,0
26.04.2017 21:00:00 4,1 0,0 4 2 - - NE 1020,7 18 0,0
26.04.2017 20:00:00 7,8 -1,0 9 5 - - NNW 1020,1 30 0,0
26.04.2017 19:00:00 9,0 -1,4 4 2 - - N 1019,7 6 0,0
26.04.2017 18:00:00 9,8 -1,4 8 4 - - N 1019,6 42 0,0
26.04.2017 17:00:00 10,0 -0,5 15 8 - - NNW 1019,6 12 0,0
26.04.2017 16:00:00 10,7 -0,7 11 6 - - NNE 1019,6 30 0,0
26.04.2017 15:00:00 10,6 -2,3 15 8 - - NNE 1019,6 36 0,0
26.04.2017 14:00:00 10,2 -3,4 16 9 - - N 1019,8 60 0,0
26.04.2017 13:00:00 10,1 0,7 15 8 - - NE 1019,8 60 0,0
26.04.2017 12:00:00 9,1 1,8 15 8 - - NNE 1020,1 42 0,0
26.04.2017 11:00:00 8,2 1,6 15 8 - - NNE 1019,8 48 0,0
26.04.2017 10:00:00 6,6 1,0 16 9 - - N 1020,0 36 0,0
26.04.2017 09:00:00 4,6 2,1 4 2 - - SW 1019,8 12 0,0
26.04.2017 08:00:00 1,8 1,3 8 4 - - WNW 1019,7 0 0,0
26.04.2017 07:00:00 0,4 0,4 4 2 - - NNE 1019,3 0 0,0
26.04.2017 06:00:00 -1,0 -1,1 2 1 - - E 1018,9 0 0,0
26.04.2017 05:00:00 -1,2 -1,3 4 2 - - ESE 1018,5 0 0,0
26.04.2017 04:00:00 -2,1 -2,5 2 1 - - NE 1018,4 0 0,0
26.04.2017 03:00:00 -1,3 -1,8 4 2 - - ENE 1018,2 0 0,0
26.04.2017 02:00:00 0,6 0,2 2 1 - - ENE 1018,1 0 0,0
26.04.2017 01:00:00 0,6 -0,5 2 1 - - NNE 1018,3 - 0,0
26.04.2017 00:00:00 3,0 1,1 8 4 - - N 1017,9 0 0,0
25.04.2017 23:00:00 4,5 1,7 5 3 - - NNE 1017,7 0 0,0
25.04.2017 22:00:00 3,5 1,7 5 3 - - WNW 1016,9 0 0,2
25.04.2017 21:00:00 2,6 1,0 2 1 - - E 1016,6 0 0,0
25.04.2017 20:00:00 5,3 1,8 5 3 - - ENE 1016,2 18 0,0
25.04.2017 19:00:00 5,9 1,7 9 5 - - WNW 1016,1 12 0,0
25.04.2017 18:00:00 5,8 1,6 13 7 - - WNW 1016,1 0 0,0
25.04.2017 17:00:00 6,4 2,0 13 7 52 28 NE 1016,3 6 0,6
25.04.2017 16:00:00 9,6 -0,9 5 3 - - N 1015,1 24 0,0
25.04.2017 15:00:00 9,4 -2,5 18 10 - - N 1015,8 36 0,0
25.04.2017 14:00:00 10,5 -1,8 15 8 - - N 1015,7 48 0,0
25.04.2017 13:00:00 9,8 -1,4 16 9 - - N 1015,8 54 0,0
25.04.2017 12:00:00 9,4 0,2 16 9 - - NNE 1015,9 42 0,0
25.04.2017 11:00:00 8,8 1,0 16 9 - - N 1015,7 36 0,0
25.04.2017 10:00:00 8,3 1,9 11 6 - - N 1015,6 54 0,0
25.04.2017 09:00:00 6,3 1,7 13 7 - - NNW 1015,6 48 0,0
25.04.2017 08:00:00 3,4 0,7 8 4 - - NW 1015,8 12 0,0
25.04.2017 07:00:00 1,1 -1,8 8 4 - - NNW 1015,7 12 0,0
25.04.2017 06:00:00 -0,4 -3,4 4 2 - - NNW 1015,8 0 0,0
25.04.2017 05:00:00 0,5 -2,8 8 4 - - WNW 1015,9 0 0,0
25.04.2017 04:00:00 0,4 -3,0 8 4 - - WNW 1016,1 0 0,0
25.04.2017 03:00:00 1,4 -2,4 8 4 - - W 1016,2 0 0,0
25.04.2017 02:00:00 2,2 -1,8 9 5 - - WNW 1016,3 0 0,0
25.04.2017 01:00:00 5,7 -2,2 11 6 - - NNW 1016,2 - 0,0
25.04.2017 00:00:00 6,9 0,6 11 6 - - NNW 1016,2 0 0,0
24.04.2017 23:00:00 8,2 2,9 11 6 - - NW 1015,6 0 0,0
24.04.2017 22:00:00 8,8 4,0 11 6 - - NW 1015,6 0 0,0
24.04.2017 21:00:00 9,2 4,6 15 8 - - N 1015,0 0 0,0
24.04.2017 20:00:00 10,5 6,2 16 9 - - NW 1014,7 0 0,0
24.04.2017 19:00:00 11,8 5,0 18 10 - - NW 1014,6 0 0,0
24.04.2017 18:00:00 12,9 5,3 26 14 - - WNW 1014,8 6 0,0
24.04.2017 17:00:00 13,2 4,4 21 11 - - NW 1015,0 0 0,0
24.04.2017 16:00:00 13,2 6,3 18 10 - - NW 1015,6 0 0,0
24.04.2017 15:00:00 13,7 6,3 21 11 - - WNW 1016,1 0 0,0
24.04.2017 14:00:00 13,7 7,8 15 8 - - W 1016,7 0 0,0
24.04.2017 13:00:00 13,3 7,6 16 9 - - WNW 1017,3 0 0,0
24.04.2017 12:00:00 14,0 7,7 15 8 - - WNW 1017,9 0 0,0
24.04.2017 11:00:00 12,8 5,9 16 9 - - W 1018,5 42 0,0
24.04.2017 10:00:00 11,2 8,4 8 4 - - NW 1019,0 60 0,0
24.04.2017 09:00:00 7,1 7,1 4 2 - - NNW 1019,4 12 0,0
24.04.2017 08:00:00 4,1 4,1 2 1 - - ENE 1019,9 0 0,0
24.04.2017 07:00:00 1,8 1,8 2 1 - - NNE 1020,1 0 0,0
24.04.2017 06:00:00 1,2 1,0 4 2 - - ENE 1020,3 0 0,0
24.04.2017 05:00:00 2,0 1,8 2 1 - - ESE 1020,7 0 0,0
24.04.2017 04:00:00 2,6 2,4 0 0 - - N 1021,1 0 0,0
24.04.2017 03:00:00 2,8 2,4 0 0 - - N 1021,7 0 0,0
24.04.2017 02:00:00 3,0 2,2 4 2 - - N 1022,2 0 0,0
24.04.2017 01:00:00 3,9 3,1 2 1 - - N 1022,7 - 0,0
24.04.2017 00:00:00 5,1 3,6 2 1 - - NNE 1023,2 0 0,0
23.04.2017 23:00:00 6,2 4,6 2 1 - - NW 1023,4 0 0,0
23.04.2017 22:00:00 7,4 4,5 2 1 - - W 1023,7 0 0,0
23.04.2017 21:00:00 11,1 8,8 4 2 - - WNW 1023,6 0 0,0
23.04.2017 20:00:00 12,2 9,1 4 2 - - SSW 1023,5 0 0,0
23.04.2017 19:00:00 12,5 9,4 8 4 - - S 1024,0 0 0,0
23.04.2017 18:00:00 12,4 8,9 9 5 - - S 1024,3 0 0,0
23.04.2017 17:00:00 12,5 8,8 13 7 - - SSW 1024,7 0 0,0
23.04.2017 16:00:00 12,6 7,7 16 9 - - S 1025,2 0 0,0
23.04.2017 15:00:00 14,7 7,4 15 8 - - SW 1025,5 0 0,0
23.04.2017 14:00:00 14,7 5,1 8 4 - - SW 1025,9 0 0,0
23.04.2017 13:00:00 14,7 5,3 4 2 - - ENE 1026,4 0 0,0
23.04.2017 12:00:00 13,8 5,3 5 3 - - SW 1027,1 0 0,0
23.04.2017 11:00:00 12,6 3,9 4 2 - - NNW 1027,5 12 0,0
23.04.2017 10:00:00 10,0 6,0 5 3 - - N 1027,7 0 0,0
23.04.2017 09:00:00 7,1 6,7 4 2 - - NNE 1028,0 0 0,0
23.04.2017 08:00:00 4,4 4,4 4 2 - - ENE 1028,1 30 0,0
23.04.2017 07:00:00 1,3 1,3 2 1 - - E 1027,8 0 0,0
23.04.2017 06:00:00 0,3 0,0 4 2 - - WNW 1027,7 0 0,0

tt = temperature
td = dewpoint
ff = wind speed
fx = gusts
dd = wind direction
ppp = reduced air pressure
sd = sunshine duration
rr = precipitation

Next stations